Terminal Aerodrome Forecast
Issued by NWS

Home | Current Version | Previous Version | Text Only | Print | Product List | Glossary On
Versions: 1 2 3 4 5 6 7 8 9 10 11 12 13 14 15 16 17 18
516
FTUS42 KTBW 221736
TAFRSW
TAF
KRSW 221736Z 2218/2318 14009KT P6SM SCT040 SCT250
     FM221900 16011KT P6SM VCTS SCT040CB SCT080 BKN250
     FM230100 10004KT P6SM SCT030 SCT100 BKN250
     FM231400 14008KT P6SM SCT030 SCT250=

USA.gov is the U.S. government's official web portal to all federal, state and local government web resources and services.